Time;durP1;ratioP1;P1;durP2;ratioP2;P2;SDS_P1;SDS_P2;PMS_P1;PMS_P2;Temp;Humidity;BMP_temperature;BMP_pressure;BME280_temperature;BME280_humidity;BME280_pressure;Samples;Min_cycle;Max_cycle;Signal;HPM_P1;HPM_P2
2023/05/10 00:01:25;;;;;;;463.13;437.53;;;14.10;55.00;;;;;;5013026;28;20892;-71
2023/05/10 00:03:51;;;;;;;613.80;575.50;;;14.10;55.00;;;;;;5011669;28;20534;-70
2023/05/10 00:06:16;;;;;;;631.93;589.13;;;14.00;54.30;;;;;;5013612;28;20234;-71
2023/05/10 00:08:42;;;;;;;546.50;510.23;;;14.00;55.10;;;;;;5012173;28;20175;-71
2023/05/10 00:11:07;;;;;;;503.90;472.80;;;14.00;56.20;;;;;;5013088;28;20203;-71
2023/05/10 00:13:33;;;;;;;486.60;457.50;;;13.90;57.50;;;;;;5012871;28;20262;-71
2023/05/10 00:15:58;;;;;;;435.90;412.23;;;13.90;58.00;;;;;;5011998;28;20265;-71
2023/05/10 00:18:24;;;;;;;738.30;687.27;;;13.90;58.30;;;;;;5013023;28;20176;-70
2023/05/10 00:20:50;;;;;;;706.40;658.30;;;13.90;59.60;;;;;;5011782;28;20214;-71
2023/05/10 00:23:15;;;;;;;537.70;505.37;;;13.80;58.30;;;;;;5012669;28;20660;-70
2023/05/10 00:25:41;;;;;;;501.33;471.33;;;13.70;59.70;;;;;;5013095;28;20545;-71
2023/05/10 00:28:06;;;;;;;449.33;423.60;;;13.60;61.70;;;;;;5012926;28;20186;-71
2023/05/10 00:30:32;;;;;;;622.07;582.87;;;13.60;61.70;;;;;;5011386;28;20213;-71
2023/05/10 00:32:57;;;;;;;690.33;644.23;;;13.60;61.20;;;;;;5012708;28;20191;-71
2023/05/10 00:35:23;;;;;;;572.33;535.97;;;13.70;61.80;;;;;;5012501;28;20209;-70
2023/05/10 00:37:49;;;;;;;515.93;486.93;;;13.70;61.80;;;;;;5012085;28;20636;-71
2023/05/10 00:40:14;;;;;;;413.00;389.03;;;13.70;62.70;;;;;;5011466;28;20237;-71
2023/05/10 00:42:40;;;;;;;567.33;533.10;;;13.70;62.30;;;;;;5012398;28;20235;-71
2023/05/10 00:45:06;;;;;;;480.50;453.13;;;13.70;62.60;;;;;;5013044;28;20172;-70
2023/05/10 00:47:32;;;;;;;700.00;653.07;;;13.80;62.60;;;;;;5012458;28;20677;-70
2023/05/10 00:50:00;;;;;;;508.27;478.20;;;13.70;61.50;;;;;;5012312;28;20817;-70
2023/05/10 00:52:26;;;;;;;535.50;504.17;;;13.60;61.50;;;;;;5012184;28;20486;-70
2023/05/10 00:54:53;;;;;;;650.60;610.30;;;13.60;64.40;;;;;;5012469;28;20502;-70
2023/05/10 00:57:19;;;;;;;672.83;628.33;;;13.60;64.50;;;;;;5011901;28;20445;-70
2023/05/10 00:59:45;;;;;;;565.67;532.33;;;13.60;64.50;;;;;;5011068;28;20995;-70
2023/05/10 01:02:11;;;;;;;563.83;529.83;;;13.60;64.50;;;;;;5011937;28;20454;-70
2023/05/10 01:04:37;;;;;;;634.77;594.43;;;13.50;64.40;;;;;;5012199;28;20824;-71
2023/05/10 01:07:03;;;;;;;554.97;523.87;;;13.50;64.40;;;;;;5012214;28;20440;-70
2023/05/10 01:09:29;;;;;;;642.97;602.80;;;13.40;64.40;;;;;;5012074;28;20426;-71
2023/05/10 01:11:55;;;;;;;812.73;759.63;;;13.50;66.00;;;;;;5011897;28;20209;-70
2023/05/10 01:14:21;;;;;;;568.57;533.90;;;13.50;64.90;;;;;;5011023;28;20885;-70
2023/05/10 01:16:49;;;;;;;618.20;583.33;;;13.50;64.50;;;;;;5012087;28;20429;-70
2023/05/10 01:19:22;;;;;;;565.93;534.70;;;13.60;64.60;;;;;;5011813;28;21041;-70
2023/05/10 01:22:12;;;;;;;567.17;536.93;;;13.60;64.60;;;;;;5011905;28;20496;-70
2023/05/10 01:25:25;;;;;;;526.77;496.50;;;13.60;62.40;;;;;;5012183;28;20413;-71
2023/05/10 01:28:02;;;;;;;558.37;524.27;;;13.60;61.40;;;;;;4951342;29;20465;-70
2023/05/10 01:31:05;;;;;;;641.67;601.60;;;13.40;61.10;;;;;;5003992;28;20456;-71
2023/05/10 01:33:53;;;;;;;607.03;569.50;;;13.40;61.20;;;;;;5011511;28;20500;-70
2023/05/10 01:36:28;;;;;;;494.00;465.57;;;13.40;61.70;;;;;;5012117;28;20470;-70
2023/05/10 01:39:17;;;;;;;590.37;555.33;;;13.50;60.10;;;;;;5012424;28;20437;-70
2023/05/10 01:42:07;;;;;;;461.33;434.43;;;13.50;60.70;;;;;;5011409;28;20450;-70
2023/05/10 01:45:08;;;;;;;425.80;403.13;;;13.50;61.40;;;;;;5012427;28;20433;-70
2023/05/10 01:47:44;;;;;;;534.83;504.83;;;13.60;60.50;;;;;;4995876;28;20826;-69
2023/05/10 01:50:16;;;;;;;490.70;464.20;;;13.40;59.50;;;;;;5011718;28;20985;-70
2023/05/10 01:52:44;;;;;;;421.37;397.50;;;13.40;61.60;;;;;;5010266;28;20915;-70
2023/05/10 01:55:17;;;;;;;609.67;572.87;;;13.40;60.50;;;;;;5011539;28;20828;-70
2023/05/10 01:57:46;;;;;;;513.93;485.83;;;13.40;60.20;;;;;;5011784;28;20800;-70
2023/05/10 02:00:13;;;;;;;604.77;568.23;;;13.40;60.50;;;;;;5011692;28;20533;-70
2023/05/10 02:02:41;;;;;;;559.47;525.57;;;13.30;60.20;;;;;;5011333;28;20474;-70
2023/05/10 02:05:08;;;;;;;505.90;476.77;;;13.30;59.50;;;;;;5011589;28;20462;-70
2023/05/10 02:07:36;;;;;;;464.20;439.37;;;13.20;59.10;;;;;;5011637;28;20434;-71
2023/05/10 02:10:04;;;;;;;456.67;430.70;;;13.30;60.90;;;;;;5014436;28;20453;-70
2023/05/10 02:12:31;;;;;;;777.33;726.37;;;13.20;60.20;;;;;;5014715;28;20875;-70
2023/05/10 02:14:59;;;;;;;418.17;395.07;;;13.20;60.50;;;;;;5013996;28;20435;-70
2023/05/10 02:17:25;;;;;;;449.67;423.80;;;13.30;60.00;;;;;;5013742;28;20798;-70
2023/05/10 02:19:52;;;;;;;420.67;397.00;;;13.20;60.10;;;;;;5014715;28;20476;-70
2023/05/10 02:22:19;;;;;;;509.90;482.97;;;13.10;62.00;;;;;;5013369;28;20442;-70
2023/05/10 02:24:46;;;;;;;567.73;534.70;;;13.20;62.20;;;;;;5015076;28;20436;-70
2023/05/10 02:27:13;;;;;;;706.10;659.53;;;13.10;63.10;;;;;;5014043;28;20426;-70
2023/05/10 02:29:39;;;;;;;449.77;425.03;;;13.00;62.70;;;;;;5015110;28;20943;-70
2023/05/10 02:32:05;;;;;;;482.63;456.10;;;13.10;61.50;;;;;;5013338;28;20833;-70
2023/05/10 02:34:32;;;;;;;437.40;414.03;;;13.10;61.10;;;;;;5014883;28;20438;-69
2023/05/10 02:36:59;;;;;;;649.77;608.27;;;13.10;59.90;;;;;;5014947;28;20781;-70
2023/05/10 02:39:26;;;;;;;458.83;433.00;;;13.00;59.10;;;;;;5014806;28;20464;-70
2023/05/10 02:41:53;;;;;;;616.77;579.23;;;13.00;60.00;;;;;;5014378;28;20548;-70
2023/05/10 02:44:20;;;;;;;520.03;489.60;;;13.00;59.50;;;;;;5014479;28;20431;-69
2023/05/10 02:46:46;;;;;;;433.73;409.13;;;13.00;58.90;;;;;;5014696;28;20407;-69
2023/05/10 02:49:12;;;;;;;537.83;507.67;;;13.00;58.00;;;;;;5014708;28;20950;-68
2023/05/10 02:51:48;;;;;;;498.97;468.30;;;12.90;59.40;;;;;;5014246;28;20449;-69
2023/05/10 02:54:21;;;;;;;523.90;491.53;;;12.90;59.80;;;;;;5014451;28;20667;-69
2023/05/10 02:56:56;;;;;;;472.77;445.83;;;13.00;59.70;;;;;;5014447;28;20913;-69
2023/05/10 02:59:21;;;;;;;445.40;420.50;;;12.90;58.80;;;;;;5014400;28;20505;-70
2023/05/10 03:01:47;;;;;;;441.53;417.57;;;12.90;58.70;;;;;;5014115;28;20863;-69
2023/05/10 03:04:13;;;;;;;490.37;461.47;;;12.90;59.20;;;;;;5014357;28;20552;-69
2023/05/10 03:06:39;;;;;;;484.50;456.27;;;12.80;58.70;;;;;;5014331;28;20205;-69
2023/05/10 03:09:05;;;;;;;475.30;449.10;;;12.80;60.00;;;;;;5014253;28;20242;-69
2023/05/10 03:11:33;;;;;;;440.90;417.03;;;12.80;59.60;;;;;;5014064;28;20442;-69
2023/05/10 03:14:33;;;;;;;515.87;485.43;;;12.80;59.60;;;;;;5014277;28;20972;-69
2023/05/10 03:17:23;;;;;;;517.27;488.00;;;12.80;58.70;;;;;;5013643;28;20431;-69
2023/05/10 03:19:57;;;;;;;495.43;467.27;;;12.70;63.40;;;;;;5013208;28;20469;-70
2023/05/10 03:22:44;;;;;;;532.53;502.33;;;12.60;63.60;;;;;;5013818;28;20434;-69
2023/05/10 03:25:12;;;;;;;500.10;472.30;;;12.70;61.50;;;;;;5015332;28;20426;-69
2023/05/10 03:27:41;;;;;;;422.60;399.23;;;12.60;62.40;;;;;;5013952;28;20418;-69
2023/05/10 03:30:10;;;;;;;414.97;392.30;;;12.60;62.50;;;;;;5014996;28;20449;-70
2023/05/10 03:32:35;;;;;;;523.40;493.17;;;12.70;61.80;;;;;;5013615;28;20799;-69
2023/05/10 03:35:06;;;;;;;432.40;408.37;;;12.80;63.00;;;;;;5013631;28;20490;-69
2023/05/10 03:37:31;;;;;;;512.20;481.57;;;12.90;61.10;;;;;;5013846;28;20237;-69
2023/05/10 03:39:57;;;;;;;644.43;604.70;;;13.00;60.10;;;;;;5012453;28;20458;-69
2023/05/10 03:42:22;;;;;;;480.73;454.87;;;13.00;59.80;;;;;;5013366;28;20228;-69
2023/05/10 03:44:49;;;;;;;430.37;407.03;;;13.00;60.00;;;;;;5013765;28;20534;-69
2023/05/10 03:47:14;;;;;;;468.53;443.20;;;13.10;60.10;;;;;;5013500;28;20180;-69
2023/05/10 03:49:40;;;;;;;542.43;509.13;;;13.10;59.20;;;;;;5012214;28;21005;-69
2023/05/10 03:52:06;;;;;;;698.77;653.80;;;13.20;58.90;;;;;;5013181;28;20199;-69
2023/05/10 03:54:32;;;;;;;416.87;393.03;;;13.20;59.00;;;;;;5013930;28;20180;-69
2023/05/10 03:56:57;;;;;;;481.87;454.60;;;13.20;57.60;;;;;;5013450;28;20461;-69
2023/05/10 03:59:23;;;;;;;522.77;494.20;;;13.20;58.50;;;;;;5012943;28;20202;-69
2023/05/10 04:01:48;;;;;;;511.90;483.33;;;13.20;58.00;;;;;;5013034;28;20200;-69
2023/05/10 04:04:14;;;;;;;492.13;464.17;;;13.20;58.40;;;;;;5013270;28;20175;-69
2023/05/10 04:06:39;;;;;;;724.73;678.00;;;13.30;58.50;;;;;;5013164;28;20217;-70
2023/05/10 04:09:05;;;;;;;431.63;408.77;;;13.30;58.40;;;;;;5013274;28;20543;-69
2023/05/10 04:11:30;;;;;;;411.90;387.70;;;13.30;57.90;;;;;;5012769;28;20204;-69
2023/05/10 04:13:56;;;;;;;443.83;418.93;;;13.30;57.00;;;;;;5013026;28;20190;-69
2023/05/10 04:16:22;;;;;;;452.93;427.77;;;13.30;56.60;;;;;;5013164;28;20174;-69
2023/05/10 04:18:48;;;;;;;463.83;437.20;;;13.30;58.20;;;;;;5013000;28;20422;-69
2023/05/10 04:21:14;;;;;;;582.37;546.63;;;13.20;57.70;;;;;;5011743;28;20290;-69
2023/05/10 04:23:40;;;;;;;505.43;474.40;;;13.30;57.40;;;;;;5012389;28;20450;-70
2023/05/10 04:26:06;;;;;;;537.83;505.03;;;13.30;56.90;;;;;;5012896;28;20422;-69
2023/05/10 04:28:31;;;;;;;399.93;377.57;;;13.30;56.70;;;;;;5012890;28;20978;-70
2023/05/10 04:31:09;;;;;;;428.77;404.53;;;13.10;57.10;;;;;;5012621;28;20802;-70
2023/05/10 04:33:35;;;;;;;524.17;492.27;;;13.00;55.80;;;;;;5012685;28;20183;-70
2023/05/10 04:36:01;;;;;;;498.33;469.23;;;13.10;56.60;;;;;;5012462;28;20473;-70
2023/05/10 04:38:27;;;;;;;435.77;411.93;;;13.10;56.10;;;;;;5012647;28;20479;-70
2023/05/10 04:40:53;;;;;;;517.43;486.03;;;13.20;55.70;;;;;;5012484;28;20477;-70
2023/05/10 04:43:19;;;;;;;524.33;490.87;;;13.30;55.50;;;;;;5012301;28;20423;-70
2023/05/10 04:45:44;;;;;;;486.63;457.97;;;13.30;55.10;;;;;;5012506;28;20411;-69
2023/05/10 04:48:11;;;;;;;516.57;485.93;;;13.40;54.40;;;;;;5012399;28;20590;-69
2023/05/10 04:50:36;;;;;;;460.50;433.93;;;13.20;52.20;;;;;;5012346;28;20182;-69
2023/05/10 04:53:02;;;;;;;394.83;372.37;;;13.20;53.40;;;;;;5012304;28;20422;-70
2023/05/10 04:55:27;;;;;;;482.00;451.03;;;13.30;51.80;;;;;;5012482;28;20186;-69
2023/05/10 04:57:56;;;;;;;534.43;504.23;;;13.40;52.30;;;;;;5012589;28;20174;-69
2023/05/10 05:00:22;;;;;;;406.00;382.27;;;13.50;50.70;;;;;;5012384;28;20306;-70
2023/05/10 05:02:47;;;;;;;496.47;466.67;;;13.60;51.70;;;;;;5012290;28;20457;-70
2023/05/10 05:05:13;;;;;;;481.90;449.43;;;13.50;50.10;;;;;;5012273;28;20187;-70
2023/05/10 05:07:38;;;;;;;601.27;561.03;;;13.60;51.10;;;;;;5012446;28;20192;-70
2023/05/10 05:10:08;;;;;;;481.50;453.67;;;13.50;50.60;;;;;;5012651;28;20828;-70
2023/05/10 05:12:34;;;;;;;546.37;510.80;;;13.40;51.10;;;;;;5012147;28;20297;-70
2023/05/10 05:15:00;;;;;;;566.97;531.60;;;13.50;51.20;;;;;;5012453;28;20432;-70
2023/05/10 05:17:25;;;;;;;537.17;505.17;;;13.50;51.30;;;;;;5011036;28;20423;-69
2023/05/10 05:19:51;;;;;;;511.70;480.70;;;13.50;50.70;;;;;;5012205;28;20191;-69
2023/05/10 05:22:16;;;;;;;513.50;480.27;;;13.50;51.80;;;;;;5011647;28;20200;-69
2023/05/10 05:24:42;;;;;;;522.13;488.50;;;13.50;52.10;;;;;;5011795;28;20186;-70
2023/05/10 05:27:07;;;;;;;535.33;501.73;;;13.60;51.60;;;;;;5012126;28;20256;-70
2023/05/10 05:29:33;;;;;;;472.37;446.10;;;13.70;52.20;;;;;;5010750;28;20182;-70
2023/05/10 05:31:59;;;;;;;486.53;457.83;;;13.90;50.60;;;;;;5010370;28;20226;-70
2023/05/10 05:34:25;;;;;;;638.10;595.83;;;14.00;50.40;;;;;;5010305;28;20197;-68
2023/05/10 05:36:50;;;;;;;464.70;437.90;;;14.00;48.30;;;;;;5011954;28;20207;-68
2023/05/10 05:39:16;;;;;;;499.13;468.33;;;14.20;48.70;;;;;;5010532;28;20968;-68
2023/05/10 05:41:42;;;;;;;510.87;480.47;;;14.20;46.90;;;;;;5011568;28;20553;-69
2023/05/10 05:44:07;;;;;;;560.90;526.17;;;14.20;46.70;;;;;;5015785;28;20246;-68
2023/05/10 05:46:33;;;;;;;437.40;412.53;;;14.10;45.60;;;;;;5015571;28;20426;-67
2023/05/10 05:48:58;;;;;;;517.97;485.10;;;14.10;46.10;;;;;;5014325;28;20193;-69
2023/05/10 05:51:25;;;;;;;683.97;635.97;;;14.20;47.70;;;;;;5015540;28;20191;-68
2023/05/10 05:53:50;;;;;;;592.37;554.43;;;14.20;48.80;;;;;;5015224;28;20547;-68
2023/05/10 05:56:17;;;;;;;622.17;580.87;;;14.10;47.30;;;;;;5015734;28;20411;-68
2023/05/10 05:58:43;;;;;;;540.73;507.53;;;13.80;49.20;;;;;;5015340;28;20234;-68
2023/05/10 06:01:08;;;;;;;590.43;552.77;;;13.80;50.70;;;;;;5015403;28;20485;-68
2023/05/10 06:03:34;;;;;;;697.30;648.93;;;13.60;51.20;;;;;;5015454;28;20415;-69
2023/05/10 06:05:59;;;;;;;757.50;705.37;;;13.60;51.60;;;;;;5015322;28;20198;-68
2023/05/10 06:08:25;;;;;;;478.07;448.47;;;13.40;53.50;;;;;;5015111;28;20676;-68
2023/05/10 06:10:51;;;;;;;551.57;517.47;;;13.50;54.20;;;;;;5015046;28;20215;-68
2023/05/10 06:13:16;;;;;;;428.00;403.33;;;13.60;53.30;;;;;;5014795;28;20198;-69
2023/05/10 06:15:42;;;;;;;464.63;436.77;;;13.70;50.90;;;;;;5013902;28;20354;-67
2023/05/10 06:18:07;;;;;;;463.47;435.27;;;13.80;50.20;;;;;;5013872;28;20187;-70
2023/05/10 06:20:33;;;;;;;533.30;498.13;;;14.10;50.20;;;;;;5014814;28;20199;-68
2023/05/10 06:22:58;;;;;;;579.73;541.80;;;14.10;48.20;;;;;;5014663;28;20299;-74
2023/05/10 06:25:24;;;;;;;581.57;546.27;;;14.20;46.60;;;;;;5014848;28;20177;-70
2023/05/10 06:27:50;;;;;;;514.67;482.17;;;14.20;46.00;;;;;;5013690;28;20172;-70
2023/05/10 06:30:16;;;;;;;748.20;695.87;;;14.30;46.30;;;;;;5015065;28;20176;-70
2023/05/10 06:32:43;;;;;;;369.93;348.03;;;14.30;47.30;;;;;;5014676;28;20508;-71
2023/05/10 06:35:09;;;;;;;502.07;468.93;;;14.30;47.10;;;;;;5014619;28;20519;-70
2023/05/10 06:37:35;;;;;;;590.47;552.10;;;14.20;47.10;;;;;;5014704;28;20671;-70
2023/05/10 06:40:00;;;;;;;679.03;632.13;;;14.30;47.70;;;;;;5013615;28;20463;-70
2023/05/10 06:42:27;;;;;;;619.93;579.73;;;14.40;43.80;;;;;;5012512;28;20200;-71
2023/05/10 06:44:52;;;;;;;557.27;522.97;;;14.20;45.00;;;;;;5014663;28;20175;-70
2023/05/10 06:47:18;;;;;;;692.33;646.83;;;14.50;44.50;;;;;;5013513;28;20423;-70
2023/05/10 06:49:44;;;;;;;676.47;631.60;;;14.30;43.90;;;;;;5012745;28;20772;-70
2023/05/10 06:52:09;;;;;;;375.93;353.20;;;14.60;44.70;;;;;;5014251;28;20275;-70
2023/05/10 06:54:35;;;;;;;651.10;608.30;;;15.00;42.40;;;;;;5013475;28;20675;-71
2023/05/10 06:57:02;;;;;;;575.17;538.23;;;15.00;39.80;;;;;;5014472;28;20692;-71
2023/05/10 06:59:28;;;;;;;452.07;425.37;;;15.20;39.90;;;;;;5014398;28;20283;-71
2023/05/10 07:01:54;;;;;;;538.63;504.17;;;15.50;38.60;;;;;;5013967;28;21011;-70
2023/05/10 07:04:19;;;;;;;592.10;554.23;;;15.60;38.50;;;;;;5014168;28;20242;-70
2023/05/10 07:06:46;;;;;;;694.90;647.77;;;15.80;36.10;;;;;;5013840;28;20215;-71
2023/05/10 07:09:11;;;;;;;690.93;643.30;;;15.90;35.80;;;;;;5014380;28;20176;-70
2023/05/10 07:11:37;;;;;;;678.27;632.43;;;16.20;35.00;;;;;;5007944;28;20434;-70
2023/05/10 07:14:03;;;;;;;633.23;591.00;;;15.80;33.30;;;;;;5009503;28;20207;-70
2023/05/10 07:16:28;;;;;;;737.90;687.70;;;15.50;34.90;;;;;;5009615;28;20184;-71
2023/05/10 07:18:54;;;;;;;619.83;577.20;;;15.10;35.50;;;;;;5010441;28;20199;-69
2023/05/10 07:21:19;;;;;;;509.23;479.03;;;15.20;37.00;;;;;;5009740;28;20196;-71
2023/05/10 07:23:45;;;;;;;725.27;678.33;;;15.00;36.10;;;;;;5009454;28;20176;-69
2023/05/10 07:26:11;;;;;;;681.90;635.00;;;15.10;37.70;;;;;;5010264;28;20188;-70
2023/05/10 07:28:37;;;;;;;654.77;610.00;;;15.20;38.10;;;;;;5009601;28;20187;-70
2023/05/10 07:31:03;;;;;;;597.53;558.23;;;14.90;39.20;;;;;;5009688;28;20964;-69
2023/05/10 07:33:28;;;;;;;704.33;656.37;;;15.00;38.00;;;;;;5009969;28;20451;-70
2023/05/10 07:35:54;;;;;;;572.33;534.33;;;14.80;40.00;;;;;;5010953;28;20192;-70
2023/05/10 07:38:19;;;;;;;602.93;563.63;;;14.80;39.60;;;;;;5013682;28;20237;-70
2023/05/10 07:40:45;;;;;;;598.27;558.77;;;14.90;40.60;;;;;;5013495;28;20288;-70
2023/05/10 07:43:10;;;;;;;554.43;518.53;;;15.00;39.60;;;;;;5013289;28;20168;-70
2023/05/10 07:45:36;;;;;;;837.47;774.83;;;15.00;38.30;;;;;;5013612;28;20214;-70
2023/05/10 07:48:01;;;;;;;536.63;502.33;;;15.00;39.00;;;;;;5013488;28;20180;-71
2023/05/10 07:50:27;;;;;;;595.63;553.80;;;15.00;37.70;;;;;;5013352;28;20186;-70
2023/05/10 07:52:53;;;;;;;611.13;557.73;;;15.10;37.60;;;;;;5013042;28;20176;-71
2023/05/10 07:55:19;;;;;;;643.70;595.63;;;15.30;36.00;;;;;;5012082;28;20176;-71
2023/05/10 07:57:45;;;;;;;660.07;613.13;;;15.60;36.70;;;;;;5013358;28;20188;-70
2023/05/10 08:00:13;;;;;;;544.73;510.63;;;15.60;36.00;;;;;;5013344;28;20486;-70
2023/05/10 08:02:39;;;;;;;676.00;630.37;;;15.70;36.50;;;;;;5012953;28;20735;-70
2023/05/10 08:05:05;;;;;;;588.77;550.17;;;15.90;33.80;;;;;;5012670;28;20415;-70
2023/05/10 08:07:31;;;;;;;608.30;567.67;;;15.70;34.30;;;;;;5012715;28;20176;-70
2023/05/10 08:09:56;;;;;;;627.83;587.47;;;15.80;33.60;;;;;;5013139;28;20426;-70
2023/05/10 08:12:22;;;;;;;750.90;702.20;;;16.00;31.90;;;;;;5012565;28;20242;-70
2023/05/10 08:14:47;;;;;;;638.60;598.97;;;16.00;32.20;;;;;;5012967;28;20619;-71
2023/05/10 08:17:13;;;;;;;643.87;601.40;;;16.00;31.70;;;;;;5012998;28;20551;-70
2023/05/10 08:19:38;;;;;;;695.67;649.43;;;16.10;33.60;;;;;;5012704;28;20196;-70
2023/05/10 08:22:04;;;;;;;818.77;762.50;;;16.10;31.70;;;;;;5012548;28;20192;-69
2023/05/10 08:24:30;;;;;;;657.43;614.93;;;16.40;32.30;;;;;;5012739;28;20212;-70
2023/05/10 08:26:55;;;;;;;702.10;656.00;;;16.50;30.50;;;;;;5012403;28;20179;-69
2023/05/10 08:29:21;;;;;;;592.20;552.90;;;16.70;28.60;;;;;;5012894;28;20211;-69
2023/05/10 08:31:46;;;;;;;619.23;578.83;;;16.80;28.50;;;;;;5012315;28;20314;-69
2023/05/10 08:34:12;;;;;;;794.27;738.33;;;17.00;27.40;;;;;;5012694;28;20586;-69
2023/05/10 08:36:37;;;;;;;650.50;608.10;;;17.20;25.80;;;;;;5011396;28;20188;-69
2023/05/10 08:39:03;;;;;;;749.57;698.10;;;17.50;26.00;;;;;;5011157;28;20190;-69
2023/05/10 08:41:33;;;;;;;653.67;608.73;;;17.30;25.00;;;;;;5012225;28;20235;-69
2023/05/10 08:44:03;;;;;;;754.03;700.17;;;17.40;24.90;;;;;;5012534;28;20179;-69
2023/05/10 08:46:30;;;;;;;666.10;622.73;;;17.30;24.10;;;;;;5012505;28;20495;-69
2023/05/10 08:48:59;;;;;;;692.97;645.83;;;17.70;23.80;;;;;;5012150;28;20493;-69
2023/05/10 08:51:27;;;;;;;658.37;614.53;;;18.20;22.60;;;;;;5012231;28;20625;-69
2023/05/10 08:53:52;;;;;;;687.73;641.13;;;18.10;21.50;;;;;;5010959;28;20423;-69
2023/05/10 08:56:20;;;;;;;717.67;668.03;;;17.80;21.50;;;;;;5012257;28;20525;-69
2023/05/10 08:58:45;;;;;;;745.57;690.90;;;18.10;21.80;;;;;;5012320;28;20708;-69
2023/05/10 09:01:12;;;;;;;800.33;741.23;;;18.00;21.00;;;;;;5012023;28;20458;-68
2023/05/10 09:03:39;;;;;;;707.80;657.80;;;18.40;21.10;;;;;;5010695;28;20180;-69
2023/05/10 09:06:05;;;;;;;621.20;579.70;;;18.50;19.90;;;;;;5012521;28;20935;-69
2023/05/10 09:08:31;;;;;;;543.10;510.70;;;18.20;19.70;;;;;;5012483;28;20415;-69
2023/05/10 09:10:56;;;;;;;610.83;572.40;;;18.20;21.10;;;;;;5011966;28;20239;-69
2023/05/10 09:13:23;;;;;;;653.70;609.53;;;17.90;20.70;;;;;;5011844;28;20580;-68
2023/05/10 09:15:50;;;;;;;662.47;620.17;;;17.60;21.10;;;;;;5011997;28;20179;-69
2023/05/10 09:18:16;;;;;;;622.30;581.00;;;17.70;21.60;;;;;;5011649;28;20978;-69
2023/05/10 09:20:42;;;;;;;727.03;675.70;;;17.30;23.10;;;;;;5011900;28;20537;-69
2023/05/10 09:23:07;;;;;;;805.83;743.70;;;17.30;22.20;;;;;;5011596;28;20663;-69
2023/05/10 09:25:33;;;;;;;797.47;737.63;;;17.00;22.80;;;;;;5010803;28;20548;-69
2023/05/10 09:27:59;;;;;;;736.40;684.57;;;17.00;22.30;;;;;;5012306;28;20179;-70
2023/05/10 09:30:30;;;;;;;627.43;585.97;;;17.00;22.80;;;;;;5011583;28;20672;-71
2023/05/10 09:32:58;;;;;;;619.47;577.97;;;16.80;22.60;;;;;;5011606;28;20427;-70
2023/05/10 09:35:26;;;;;;;606.17;564.67;;;16.70;21.20;;;;;;5011466;28;20559;-70
2023/05/10 09:37:53;;;;;;;566.33;530.10;;;17.10;21.70;;;;;;5011329;28;20515;-69
2023/05/10 09:40:21;;;;;;;678.63;633.17;;;17.30;21.00;;;;;;5011698;28;20450;-69
2023/05/10 09:43:13;;;;;;;686.80;641.00;;;17.60;22.00;;;;;;5011566;28;20407;-69
2023/05/10 09:45:41;;;;;;;803.53;746.33;;;17.80;20.20;;;;;;5011875;28;20414;-69
2023/05/10 09:48:06;;;;;;;653.27;610.60;;;17.80;19.40;;;;;;5011294;28;20467;-69
2023/05/10 09:50:32;;;;;;;624.80;583.43;;;18.50;19.70;;;;;;5011540;28;20818;-69
2023/05/10 09:53:03;;;;;;;657.10;614.33;;;18.80;19.20;;;;;;5009463;28;20189;-69
2023/05/10 09:55:45;;;;;;;631.67;590.87;;;19.00;18.60;;;;;;5011369;28;20661;-69
2023/05/10 09:58:12;;;;;;;574.20;540.10;;;19.70;16.30;;;;;;5011646;28;20411;-69
2023/05/10 10:00:43;;;;;;;747.10;697.37;;;19.30;16.00;;;;;;5011380;28;20474;-69
2023/05/10 10:03:17;;;;;;;648.47;606.80;;;19.50;14.50;;;;;;5011321;28;20449;-69
2023/05/10 10:05:44;;;;;;;716.53;665.10;;;19.60;13.70;;;;;;5011514;28;20469;-69
2023/05/10 10:08:10;;;;;;;624.53;584.50;;;19.10;13.40;;;;;;5011524;28;20493;-69
2023/05/10 10:10:36;;;;;;;752.47;697.63;;;18.60;14.40;;;;;;5011344;28;20434;-69
2023/05/10 10:13:02;;;;;;;826.83;759.73;;;18.00;16.70;;;;;;5011351;28;20415;-68
2023/05/10 10:15:27;;;;;;;827.57;760.57;;;17.30;19.10;;;;;;5011721;28;20215;-69
2023/05/10 10:17:54;;;;;;;752.97;697.87;;;16.90;21.50;;;;;;5011732;28;20485;-69
2023/05/10 10:20:21;;;;;;;767.07;709.90;;;16.60;24.50;;;;;;5011464;28;20246;-69
2023/05/10 10:22:47;;;;;;;597.63;558.47;;;16.30;25.90;;;;;;5011247;28;20464;-69
2023/05/10 10:25:15;;;;;;;684.00;639.27;;;16.20;27.30;;;;;;5010062;28;20411;-69
2023/05/10 10:27:53;;;;;;;650.33;608.83;;;16.30;28.40;;;;;;5011463;28;20437;-67
2023/05/10 10:30:28;;;;;;;742.57;690.90;;;16.50;27.80;;;;;;5013762;28;20932;-70
2023/05/10 10:33:16;;;;;;;590.70;552.47;;;16.80;28.50;;;;;;5029973;22;20540;-72
2023/05/10 10:35:44;;;;;;;554.47;520.13;;;16.50;28.70;;;;;;5007840;28;20440;-72
2023/05/10 10:38:12;;;;;;;620.57;580.13;;;16.70;28.70;;;;;;5015871;28;20405;-70
2023/05/10 10:40:38;;;;;;;742.37;691.50;;;16.70;27.40;;;;;;5012314;28;20462;-71
2023/05/10 10:43:26;;;;;;;610.27;570.73;;;17.00;27.40;;;;;;4995328;28;20521;-71
2023/05/10 10:46:15;;;;;;;732.97;682.13;;;17.00;25.70;;;;;;4994696;28;20212;-71
2023/05/10 10:48:46;;;;;;;560.47;525.03;;;17.50;25.30;;;;;;4994865;28;20412;-71
2023/05/10 10:51:13;;;;;;;845.70;781.83;;;17.20;24.50;;;;;;4994648;28;20920;-71
2023/05/10 10:53:40;;;;;;;697.47;647.97;;;17.60;23.70;;;;;;4996037;28;20450;-71
2023/05/10 10:56:13;;;;;;;703.23;655.10;;;17.70;22.40;;;;;;4994673;28;20467;-71
2023/05/10 10:58:39;;;;;;;736.77;683.37;;;17.90;22.10;;;;;;4994440;28;20520;-71
2023/05/10 11:01:16;;;;;;;558.33;523.40;;;17.90;21.90;;;;;;4995040;28;20543;-72
2023/05/10 11:04:18;;;;;;;823.60;760.90;;;18.40;22.00;;;;;;4995147;28;20784;-71
2023/05/10 11:06:44;;;;;;;602.83;562.23;;;18.80;20.70;;;;;;4995271;28;20459;-71
2023/05/10 11:09:12;;;;;;;530.97;498.47;;;19.10;18.30;;;;;;4994600;28;20450;-71
2023/05/10 11:11:57;;;;;;;664.03;617.93;;;19.10;18.50;;;;;;4994141;28;20650;-71
2023/05/10 11:14:24;;;;;;;647.33;605.23;;;19.40;19.00;;;;;;4993124;28;20428;-70
2023/05/10 11:16:50;;;;;;;749.73;691.90;;;19.40;17.40;;;;;;4994210;28;20583;-70
2023/05/10 11:19:16;;;;;;;873.13;804.13;;;19.20;17.90;;;;;;4994804;28;20427;-71
2023/05/10 11:22:04;;;;;;;580.73;544.77;;;19.60;17.70;;;;;;5013538;28;20439;-71
2023/05/10 11:24:30;;;;;;;698.50;649.73;;;20.60;16.50;;;;;;5014202;28;20494;-71
2023/05/10 11:26:56;;;;;;;762.13;703.57;;;20.50;14.90;;;;;;5013614;28;20945;-71
2023/05/10 11:29:22;;;;;;;724.37;669.60;;;20.10;15.30;;;;;;5013992;28;20183;-71
2023/05/10 11:31:49;;;;;;;757.47;700.53;;;19.40;16.20;;;;;;5013405;28;20561;-71
2023/05/10 11:34:26;;;;;;;601.53;562.07;;;18.20;14.50;;;;;;4996536;28;20829;-71
2023/05/10 11:36:56;;;;;;;639.93;595.07;;;17.50;16.70;;;;;;4981001;28;20505;-71
2023/05/10 11:39:29;;;;;;;805.30;741.30;;;16.80;16.80;;;;;;4992487;28;20471;-71
2023/05/10 11:41:55;;;;;;;712.17;660.77;;;16.20;17.50;;;;;;5002434;28;21018;-71
2023/05/10 11:44:20;;;;;;;652.20;608.43;;;15.80;18.00;;;;;;5014383;28;20415;-70
2023/05/10 11:46:46;;;;;;;521.03;487.17;;;15.40;20.30;;;;;;5014974;28;20426;-70
2023/05/10 11:49:13;;;;;;;581.60;544.33;;;15.60;20.50;;;;;;5012006;28;20572;-70
2023/05/10 11:51:39;;;;;;;706.07;657.43;;;15.80;21.20;;;;;;5013789;28;20615;-70
2023/05/10 11:54:10;;;;;;;642.40;598.93;;;16.00;18.20;;;;;;5013722;28;20518;-70
2023/05/10 11:56:37;;;;;;;532.50;499.37;;;16.40;18.90;;;;;;5013527;28;20502;-70
2023/05/10 11:59:03;;;;;;;771.70;704.30;;;16.60;17.50;;;;;;5013112;28;20621;-70
2023/05/10 12:01:30;;;;;;;811.67;750.03;;;16.60;17.20;;;;;;5008785;28;20475;-70
2023/05/10 12:04:00;;;;;;;551.20;517.27;;;16.40;18.50;;;;;;4992609;28;20436;-70
2023/05/10 12:06:28;;;;;;;665.23;620.10;;;16.20;20.00;;;;;;5014002;28;20436;-70
2023/05/10 12:08:54;;;;;;;525.10;494.57;;;16.20;21.40;;;;;;4976675;28;20413;-70
2023/05/10 12:11:24;;;;;;;728.53;675.17;;;16.60;22.20;;;;;;4975145;28;20813;-70
2023/05/10 12:13:50;;;;;;;549.87;516.63;;;16.60;21.70;;;;;;4976725;28;20736;-71